Time;durP1;ratioP1;P1;durP2;ratioP2;P2;SDS_P1;SDS_P2;PMS_P1;PMS_P2;Temp;Humidity;BMP_temperature;BMP_pressure;BME280_temperature;BME280_humidity;BME280_pressure;Samples;Min_cycle;Max_cycle;Signal;HPM_P1;HPM_P2
2022/06/07 00:00:45;;;;;;;;;10.25;10.25;;;;;13.65;72.94;101216.25;5038656;28;10483;-63
2022/06/07 00:03:12;;;;;;;;;14.75;11.75;;;;;13.61;73.08;101215.00;5037179;28;10363;-64
2022/06/07 00:05:41;;;;;;;;;11.00;9.25;;;;;13.60;72.83;101219.59;5031659;28;9912;-64
2022/06/07 00:08:08;;;;;;;;;10.75;8.00;;;;;13.59;73.23;101219.78;5026212;28;9702;-64
2022/06/07 00:10:34;;;;;;;;;10.25;9.50;;;;;13.57;73.24;101202.94;5041951;28;9754;-64
2022/06/07 00:13:01;;;;;;;;;8.00;8.00;;;;;13.58;73.27;101215.44;5039470;28;9661;-64
2022/06/07 00:15:27;;;;;;;;;10.50;10.25;;;;;13.58;73.04;101207.31;5042187;28;10405;-64
2022/06/07 00:17:54;;;;;;;;;9.50;9.00;;;;;13.61;73.16;101209.59;5042762;28;9598;-64
2022/06/07 00:20:21;;;;;;;;;12.75;11.50;;;;;13.60;72.92;101197.94;5042133;28;9754;-64
2022/06/07 00:22:48;;;;;;;;;11.50;9.25;;;;;13.63;73.00;101202.13;5035696;28;9697;-64
2022/06/07 00:25:15;;;;;;;;;9.75;8.75;;;;;13.64;73.03;101203.78;5034017;28;9678;-65
2022/06/07 00:27:43;;;;;;;;;10.75;10.50;;;;;13.62;73.06;101200.47;5043450;28;9686;-64
2022/06/07 00:30:11;;;;;;;;;11.25;8.75;;;;;13.62;72.88;101191.50;5053618;28;9695;-64
2022/06/07 00:32:39;;;;;;;;;11.00;9.50;;;;;13.65;73.10;101194.63;5040934;28;9601;-65
2022/06/07 00:35:07;;;;;;;;;9.00;8.00;;;;;13.66;72.88;101195.47;5038506;28;9685;-64
2022/06/07 00:37:33;;;;;;;;;10.25;8.75;;;;;13.68;72.93;101188.81;5040282;28;9689;-65
2022/06/07 00:40:00;;;;;;;;;11.00;11.00;;;;;13.70;72.97;101194.84;5028020;28;9770;-66
2022/06/07 00:42:27;;;;;;;;;11.25;9.75;;;;;13.67;72.79;101191.72;5026326;28;10482;-64
2022/06/07 00:44:54;;;;;;;;;10.75;9.00;;;;;13.64;72.87;101184.00;5047632;28;9675;-65
2022/06/07 00:47:24;;;;;;;;;16.50;9.75;;;;;13.63;72.77;101185.06;5034013;28;9593;-64
2022/06/07 00:49:55;;;;;;;;;13.75;9.50;;;;;13.63;73.11;101179.66;5037595;28;9678;-65
2022/06/07 00:52:24;;;;;;;;;12.25;12.25;;;;;13.58;72.89;101178.41;5039910;28;9853;-65
2022/06/07 00:54:51;;;;;;;;;14.50;10.75;;;;;13.60;73.13;101186.28;5037618;28;9732;-64
2022/06/07 00:57:28;;;;;;;;;13.50;10.00;;;;;13.62;72.96;101169.88;5031121;28;9755;-64
2022/06/07 00:59:55;;;;;;;;;8.50;7.50;;;;;13.67;73.15;101176.31;5039383;28;9690;-64
2022/06/07 01:02:23;;;;;;;;;9.00;9.00;;;;;13.70;72.84;101169.69;5050207;28;10494;-64
2022/06/07 01:04:49;;;;;;;;;9.50;9.50;;;;;13.71;72.41;101172.16;5041578;28;9782;-65
2022/06/07 01:12:54;;;;;;;;;9.75;9.75;;;;;13.69;72.95;101163.41;5028961;28;9760;-65
2022/06/07 01:15:23;;;;;;;;;14.00;13.00;;;;;13.66;72.87;101173.84;5043832;28;9760;-65
2022/06/07 01:17:52;;;;;;;;;12.25;10.75;;;;;13.62;72.90;101168.00;5046712;28;9713;-65
2022/06/07 01:20:19;;;;;;;;;11.00;10.00;;;;;13.63;72.95;101169.66;5037637;28;9821;-64
2022/06/07 01:22:45;;;;;;;;;15.00;11.00;;;;;13.63;73.00;101161.53;5032103;28;9686;-63
2022/06/07 01:25:19;;;;;;;;;16.00;14.25;;;;;13.62;72.80;101165.28;5037542;28;9871;-65
2022/06/07 01:27:46;;;;;;;;;8.25;7.75;;;;;13.62;72.81;101150.94;5028621;28;9767;-64
2022/06/07 01:30:13;;;;;;;;;10.00;8.00;;;;;13.58;72.83;101167.56;5035309;28;9789;-64
2022/06/07 01:32:40;;;;;;;;;14.00;12.25;;;;;13.56;72.89;101161.53;5041405;28;9679;-64
2022/06/07 01:35:07;;;;;;;;;10.00;10.00;;;;;13.59;72.86;101166.53;5037068;28;9730;-63
2022/06/07 01:37:34;;;;;;;;;12.25;11.25;;;;;13.57;72.88;101165.06;5033103;28;9678;-64
2022/06/07 01:42:46;;;;;;;;;8.75;7.50;;;;;13.62;72.67;101156.34;5032038;28;9772;-64
2022/06/07 01:45:13;;;;;;;;;12.75;11.25;;;;;13.63;72.55;101166.94;5050877;28;9740;-65
2022/06/07 01:47:41;;;;;;;;;10.00;8.75;;;;;13.59;72.62;101154.88;5034637;28;9749;-64
2022/06/07 01:50:08;;;;;;;;;10.00;9.00;;;;;13.60;72.55;101159.25;5045757;28;9832;-64
2022/06/07 01:52:37;;;;;;;;;12.75;10.75;;;;;13.57;72.42;101144.28;5047095;28;9744;-65
2022/06/07 01:55:11;;;;;;;;;8.50;8.50;;;;;13.56;72.31;101147.16;5028896;28;9866;-64
2022/06/07 01:57:46;;;;;;;;;8.75;7.50;;;;;13.60;72.31;101146.53;5027216;28;9748;-65
2022/06/07 02:00:16;;;;;;;;;10.50;9.00;;;;;13.59;72.13;101153.00;5028101;28;9836;-64
2022/06/07 02:02:47;;;;;;;;;13.50;12.50;;;;;13.57;72.21;101146.97;5030424;28;9760;-65
2022/06/07 02:05:15;;;;;;;;;8.00;6.50;;;;;13.58;72.25;101148.63;5030196;28;9900;-65
2022/06/07 02:07:47;;;;;;;;;12.75;7.00;;;;;13.56;72.21;101150.69;5054202;28;9765;-65
2022/06/07 02:10:18;;;;;;;;;11.00;10.50;;;;;13.54;71.82;101154.69;5029580;28;9770;-65
2022/06/07 02:12:45;;;;;;;;;10.75;10.25;;;;;13.47;72.30;101145.72;5046468;28;9830;-64
2022/06/07 02:15:12;;;;;;;;;15.25;13.25;;;;;13.43;72.41;101150.69;5030016;28;9885;-65
2022/06/07 02:17:39;;;;;;;;;10.75;10.75;;;;;13.40;72.71;101150.28;5036455;28;9887;-65
2022/06/07 02:20:18;;;;;;;;;8.50;6.50;;;;;13.42;72.77;101140.09;5029480;28;10712;-65
2022/06/07 02:22:44;;;;;;;;;10.25;8.75;;;;;13.46;72.70;101139.47;5030969;28;10460;-65
2022/06/07 02:25:11;;;;;;;;;10.25;10.00;;;;;13.44;72.50;101138.00;5053841;28;9761;-65
2022/06/07 02:27:38;;;;;;;;;8.00;7.25;;;;;13.49;72.45;101138.22;5048649;28;9699;-65
2022/06/07 02:30:08;;;;;;;;;11.75;11.50;;;;;13.49;72.31;101143.63;5050292;28;9831;-65
2022/06/07 02:32:35;;;;;;;;;10.00;10.00;;;;;13.50;72.57;101132.63;5049069;28;9795;-65
2022/06/07 02:35:04;;;;;;;;;11.00;10.25;;;;;13.53;72.57;101131.34;5043761;28;10465;-65
2022/06/07 02:37:33;;;;;;;;;14.25;10.00;;;;;13.54;72.62;101133.03;5042435;28;9578;-65
2022/06/07 02:40:02;;;;;;;;;12.75;11.50;;;;;13.54;72.15;101122.22;5030992;28;9946;-64
2022/06/07 02:42:28;;;;;;;;;11.00;10.50;;;;;13.55;72.31;101129.28;5030816;28;9707;-65
2022/06/07 02:44:57;;;;;;;;;12.50;12.25;;;;;13.54;72.60;101133.03;5050010;28;9685;-65
2022/06/07 02:47:24;;;;;;;;;12.25;12.00;;;;;13.54;72.45;101135.75;5049870;28;9767;-65
2022/06/07 02:49:56;;;;;;;;;8.50;8.50;;;;;13.56;72.44;101125.53;5048886;28;9891;-64
2022/06/07 02:52:23;;;;;;;;;17.75;12.00;;;;;13.54;72.32;101130.34;5042080;28;9748;-65
2022/06/07 02:55:02;;;;;;;;;13.00;11.00;;;;;13.56;72.35;101126.38;5040897;28;10061;-64
2022/06/07 02:57:30;;;;;;;;;10.00;10.00;;;;;13.56;72.14;101120.94;5025803;28;9776;-62
2022/06/07 03:00:08;;;;;;;;;11.25;11.25;;;;;13.56;72.68;101120.13;5049808;28;9711;-64
2022/06/07 03:02:35;;;;;;;;;14.75;10.50;;;;;13.54;72.36;101123.03;5034078;28;9879;-64
2022/06/07 03:05:03;;;;;;;;;14.75;11.00;;;;;13.52;72.63;101122.41;5029374;28;9937;-65
2022/06/07 03:07:29;;;;;;;;;14.75;14.00;;;;;13.45;72.49;101118.03;5028893;28;9908;-65
2022/06/07 03:09:57;;;;;;;;;10.00;9.25;;;;;13.46;72.38;101111.59;5029504;28;9831;-65
2022/06/07 03:12:23;;;;;;;;;14.25;12.25;;;;;13.52;72.77;101122.41;5045152;28;9976;-64
2022/06/07 03:14:50;;;;;;;;;14.25;14.25;;;;;13.57;72.41;101124.47;5048539;28;9833;-64
2022/06/07 03:17:17;;;;;;;;;11.75;10.50;;;;;13.58;72.53;101120.75;5021025;28;10019;-64
2022/06/07 03:19:45;;;;;;;;;8.00;8.00;;;;;13.57;72.44;101119.94;5035731;28;9741;-65
2022/06/07 03:22:14;;;;;;;;;14.50;14.00;;;;;13.56;72.37;101125.53;5050419;28;9743;-64
2022/06/07 03:24:42;;;;;;;;;10.00;9.50;;;;;13.57;72.53;101124.47;5048117;28;9887;-65
2022/06/07 03:27:12;;;;;;;;;11.00;11.00;;;;;13.55;72.43;101121.16;5032681;28;10384;-65
2022/06/07 03:29:39;;;;;;;;;19.25;12.75;;;;;13.53;72.30;101129.50;5047075;28;9855;-65
2022/06/07 03:32:09;;;;;;;;;9.50;9.50;;;;;13.56;72.65;101126.38;5052483;28;10770;-62
2022/06/07 03:34:38;;;;;;;;;10.25;10.25;;;;;13.56;72.37;101122.81;5061624;23;9575;-66
2022/06/07 03:37:06;;;;;;;;;12.00;10.50;;;;;13.56;72.44;101129.06;5049100;28;9516;-66
2022/06/07 03:39:32;;;;;;;;;7.25;6.75;;;;;13.58;71.93;101123.47;5045953;28;9618;-66
2022/06/07 03:42:01;;;;;;;;;14.50;11.75;;;;;13.60;72.41;101124.91;5052669;28;9758;-66
2022/06/07 03:44:30;;;;;;;;;12.75;12.25;;;;;13.59;72.19;101128.66;5061291;28;9724;-66
2022/06/07 03:47:09;;;;;;;;;12.50;12.50;;;;;13.59;72.16;101125.94;5053577;28;9854;-66
2022/06/07 03:49:37;;;;;;;;;11.75;11.00;;;;;13.60;72.31;101138.44;5051728;28;10425;-66
2022/06/07 03:52:04;;;;;;;;;14.50;12.50;;;;;13.57;72.07;101135.31;5052175;28;9739;-66
2022/06/07 03:54:35;;;;;;;;;10.50;10.50;;;;;13.56;72.18;101130.94;5069010;28;10454;-66
2022/06/07 03:57:03;;;;;;;;;14.50;11.00;;;;;13.60;72.10;101140.31;5062773;28;9583;-66
2022/06/07 03:59:29;;;;;;;;;9.00;9.00;;;;;13.59;72.12;101138.66;5052432;28;9732;-66
2022/06/07 04:01:56;;;;;;;;;11.75;10.25;;;;;13.59;71.88;101142.19;5052211;28;9584;-66
2022/06/07 04:04:24;;;;;;;;;18.00;16.50;;;;;13.56;72.01;101142.59;5034398;28;9774;-66
2022/06/07 04:09:43;;;;;;;;;7.00;7.00;;;;;13.57;71.92;101149.69;5068146;28;9711;-66
2022/06/07 04:12:17;;;;;;;;;13.75;11.00;;;;;13.55;71.93;101150.91;5052026;28;9530;-67
2022/06/07 04:14:45;;;;;;;;;11.25;10.00;;;;;13.58;71.75;101147.81;5051830;28;9767;-66
2022/06/07 04:17:14;;;;;;;;;12.25;12.25;;;;;13.59;71.73;101144.06;5044933;28;9762;-66
2022/06/07 04:19:46;;;;;;;;;11.75;11.25;;;;;13.58;71.61;101151.34;5051850;28;9742;-66
2022/06/07 04:22:13;;;;;;;;;8.50;8.00;;;;;13.61;71.44;101152.78;5046729;28;9771;-66
2022/06/07 04:24:49;;;;;;;;;14.50;12.25;;;;;13.57;71.41;101149.69;5050514;28;9664;-66
2022/06/07 04:27:18;;;;;;;;;11.50;7.75;;;;;13.58;71.42;101147.81;5046205;28;9674;-66
2022/06/07 04:29:50;;;;;;;;;19.75;16.00;;;;;13.51;71.11;101150.50;5047983;28;9753;-66
2022/06/07 04:32:16;;;;;;;;;13.25;10.75;;;;;13.54;71.29;101149.25;5045915;28;10089;-66
2022/06/07 04:34:45;;;;;;;;;11.25;11.25;;;;;13.54;71.14;101143.84;5051062;28;9448;-66
2022/06/07 04:37:14;;;;;;;;;14.25;10.75;;;;;13.56;71.08;101147.16;5048062;28;9674;-66
2022/06/07 04:39:41;;;;;;;;;11.25;11.25;;;;;13.62;70.90;101149.06;5049018;28;9842;-66
2022/06/07 04:42:10;;;;;;;;;11.25;10.00;;;;;13.68;70.84;101145.50;5050891;28;9770;-66
2022/06/07 04:44:48;;;;;;;;;12.50;12.50;;;;;13.69;70.84;101149.88;5051225;28;9660;-66
2022/06/07 04:47:17;;;;;;;;;12.75;9.00;;;;;13.71;70.50;101155.94;5043647;28;9663;-66
2022/06/07 04:49:44;;;;;;;;;13.00;11.00;;;;;13.74;70.49;101154.69;5052647;28;9938;-66
2022/06/07 04:52:13;;;;;;;;;12.75;11.50;;;;;13.76;70.40;101164.25;5051210;28;9770;-66
2022/06/07 04:54:49;;;;;;;;;14.25;11.75;;;;;13.74;70.21;101155.53;5050989;28;9845;-66
2022/06/07 04:57:18;;;;;;;;;11.00;11.00;;;;;13.77;70.08;101165.06;5047449;28;9778;-66
2022/06/07 04:59:45;;;;;;;;;10.50;8.25;;;;;13.81;70.27;101153.66;5046156;28;9941;-66
2022/06/07 05:02:11;;;;;;;;;11.75;11.75;;;;;13.80;69.99;101160.09;5035011;28;9764;-66
2022/06/07 05:04:39;;;;;;;;;16.25;12.00;;;;;13.82;69.89;101152.59;5051065;28;9697;-66
2022/06/07 05:07:15;;;;;;;;;13.25;13.25;;;;;13.79;69.80;101165.72;5050573;28;9772;-66
2022/06/07 05:09:56;;;;;;;;;13.50;12.50;;;;;13.79;69.94;101163.00;5048663;28;9832;-66
2022/06/07 05:12:32;;;;;;;;;21.00;14.75;;;;;13.77;70.01;101155.13;5050990;28;10431;-66
2022/06/07 05:15:00;;;;;;;;;14.75;14.25;;;;;13.81;70.21;101153.66;5052205;28;9673;-66
2022/06/07 05:17:33;;;;;;;;;16.25;14.00;;;;;13.90;70.03;101164.28;5042600;28;9823;-66
2022/06/07 05:20:02;;;;;;;;;10.00;9.75;;;;;13.94;69.71;101163.66;5043657;28;9618;-66
2022/06/07 05:22:30;;;;;;;;;15.00;11.75;;;;;13.99;69.77;101163.84;5066114;28;9788;-66
2022/06/07 05:24:58;;;;;;;;;11.75;11.00;;;;;13.98;69.56;101161.34;5061866;28;9689;-67
2022/06/07 05:27:40;;;;;;;;;12.00;10.50;;;;;14.01;69.82;101169.88;5050294;28;9509;-65
2022/06/07 05:30:14;;;;;;;;;13.75;11.75;;;;;13.95;69.76;101167.19;5034965;28;9589;-66
2022/06/07 05:33:04;;;;;;;;;16.25;13.50;;;;;13.95;69.68;101169.88;5040699;28;9604;-66
2022/06/07 05:35:37;;;;;;;;;15.00;13.00;;;;;13.90;69.86;101173.22;5034475;28;10509;-66
2022/06/07 05:38:10;;;;;;;;;10.00;10.00;;;;;13.91;69.90;101168.63;5051590;28;9680;-67
2022/06/07 05:40:38;;;;;;;;;14.25;11.50;;;;;13.92;69.81;101164.88;5041715;28;9597;-66
2022/06/07 05:43:08;;;;;;;;;14.25;11.25;;;;;13.91;70.09;101165.94;5036842;28;9682;-66
2022/06/07 05:45:38;;;;;;;;;18.25;17.25;;;;;13.90;69.74;101161.56;5047661;28;9613;-66
2022/06/07 05:48:17;;;;;;;;;19.75;16.50;;;;;13.84;69.95;101166.75;5050147;28;10574;-67
2022/06/07 05:50:50;;;;;;;;;12.00;9.75;;;;;13.86;69.92;101166.56;5050221;28;9746;-66
2022/06/07 05:53:21;;;;;;;;;13.75;13.75;;;;;13.92;70.42;101167.59;5050149;28;9602;-66
2022/06/07 05:55:47;;;;;;;;;17.25;15.25;;;;;13.94;69.97;101166.34;5051169;28;10535;-66
2022/06/07 05:58:15;;;;;;;;;15.50;11.75;;;;;13.94;70.25;101171.78;5049743;28;9794;-67
2022/06/07 06:00:42;;;;;;;;;13.00;11.25;;;;;14.05;69.88;101164.88;5049983;28;9677;-66
2022/06/07 06:03:10;;;;;;;;;12.50;11.25;;;;;14.05;69.68;101164.88;5049684;28;9781;-66
2022/06/07 06:05:48;;;;;;;;;8.50;8.50;;;;;14.12;69.57;101173.81;5041925;28;9691;-66
2022/06/07 06:11:08;;;;;;;;;13.50;12.50;;;;;14.21;69.42;101167.16;5049149;28;9604;-67
2022/06/07 06:13:37;;;;;;;;;13.75;11.50;;;;;14.19;69.42;101173.84;5044665;28;9901;-67
2022/06/07 06:16:10;;;;;;;;;14.50;11.75;;;;;14.17;69.61;101174.03;5033084;28;10755;-67
2022/06/07 06:18:42;;;;;;;;;14.25;13.00;;;;;14.14;69.17;101177.19;5049510;28;9581;-66
2022/06/07 06:21:11;;;;;;;;;13.75;13.00;;;;;14.09;69.22;101175.06;5048486;28;9728;-67
2022/06/07 06:23:38;;;;;;;;;17.00;14.00;;;;;14.03;69.16;101186.75;5049141;28;9841;-66
2022/06/07 06:26:09;;;;;;;;;17.75;13.00;;;;;14.02;69.32;101174.25;5049124;28;10756;-67
2022/06/07 06:28:37;;;;;;;;;13.25;11.75;;;;;14.06;69.48;101175.50;5048941;28;9691;-66
2022/06/07 06:31:06;;;;;;;;;12.00;10.00;;;;;14.11;69.37;101180.28;5063291;28;9662;-66
2022/06/07 06:33:39;;;;;;;;;11.50;11.50;;;;;14.16;69.35;101185.06;5054455;28;9674;-67
2022/06/07 06:36:10;;;;;;;;;14.75;13.00;;;;;14.13;69.56;101177.38;5048997;28;9716;-66
2022/06/07 06:38:38;;;;;;;;;12.75;11.75;;;;;14.14;69.45;101184.44;5049045;28;9750;-66
2022/06/07 06:41:12;;;;;;;;;19.25;15.75;;;;;14.14;69.26;101182.59;5048995;28;9576;-66
2022/06/07 06:43:41;;;;;;;;;17.25;15.50;;;;;14.10;69.30;101178.63;5049044;28;9925;-67
2022/06/07 06:46:21;;;;;;;;;19.00;16.00;;;;;14.05;69.14;101189.22;5049252;28;9760;-66
2022/06/07 06:48:49;;;;;;;;;15.00;13.75;;;;;14.03;69.06;101185.91;5048867;28;9753;-66
2022/06/07 06:51:19;;;;;;;;;13.25;11.50;;;;;14.05;69.27;101186.53;5062422;28;9754;-66
2022/06/07 06:53:47;;;;;;;;;15.25;11.50;;;;;14.13;69.23;101178.19;5029067;28;9710;-66
2022/06/07 06:56:29;;;;;;;;;14.00;12.75;;;;;14.27;68.98;101190.69;5030474;28;10497;-66
2022/06/07 06:58:59;;;;;;;;;14.25;13.50;;;;;14.26;68.47;101199.00;5048836;28;9749;-67
2022/06/07 07:01:31;;;;;;;;;18.75;14.50;;;;;14.23;68.22;101185.91;5048481;28;9675;-67
2022/06/07 07:04:04;;;;;;;;;17.25;13.75;;;;;14.26;68.36;101197.16;5043909;28;9635;-67
2022/06/07 07:06:32;;;;;;;;;17.00;15.50;;;;;14.29;68.36;101193.19;5046226;28;9935;-67
2022/06/07 07:09:00;;;;;;;;;14.75;13.50;;;;;14.33;68.41;101195.25;5036504;28;10598;-66
2022/06/07 07:11:31;;;;;;;;;17.25;16.50;;;;;14.37;68.31;101197.53;5045469;28;9673;-66
2022/06/07 07:14:02;;;;;;;;;17.00;16.25;;;;;14.35;68.16;101197.78;5044586;28;9933;-67
2022/06/07 07:16:32;;;;;;;;;22.75;16.25;;;;;14.27;68.02;101195.28;5037846;28;9753;-66
2022/06/07 07:19:00;;;;;;;;;20.75;16.25;;;;;14.26;68.27;101199.88;5041173;28;9761;-67
2022/06/07 07:21:35;;;;;;;;;17.00;17.00;;;;;14.22;68.00;101197.75;5048762;28;9696;-67
2022/06/07 07:24:09;;;;;;;;;13.50;12.50;;;;;14.29;67.58;101202.13;5040833;28;9700;-68
2022/06/07 07:26:42;;;;;;;;;14.50;14.50;;;;;14.31;67.35;101201.94;5048599;28;10411;-68
2022/06/07 07:29:14;;;;;;;;;15.75;14.00;;;;;14.31;67.59;101208.19;5048574;28;9664;-67
2022/06/07 07:31:42;;;;;;;;;20.00;17.75;;;;;14.34;67.39;101204.19;5062229;28;9580;-67
2022/06/07 07:34:14;;;;;;;;;15.00;14.00;;;;;14.38;67.26;101208.19;5044740;28;9908;-68
2022/06/07 07:36:47;;;;;;;;;14.75;10.50;;;;;14.46;67.22;101204.41;5058289;28;9712;-67
2022/06/07 07:39:24;;;;;;;;;13.00;13.00;;;;;14.47;67.23;101203.38;5041199;28;9527;-67
2022/06/07 07:41:52;;;;;;;;;15.50;13.50;;;;;14.53;67.11;101200.66;5048665;28;9504;-66
2022/06/07 07:44:21;;;;;;;;;23.00;18.25;;;;;14.48;67.62;101221.28;5040235;28;9608;-67
2022/06/07 07:46:53;;;;;;;;;16.50;13.25;;;;;14.50;67.20;101213.81;5048288;28;9760;-67
2022/06/07 07:49:22;;;;;;;;;14.50;13.75;;;;;14.51;67.29;101212.78;5030035;28;9678;-67
2022/06/07 07:51:51;;;;;;;;;20.75;19.00;;;;;14.40;67.39;101216.91;5043391;28;9557;-67
2022/06/07 07:54:24;;;;;;;;;13.75;13.75;;;;;14.36;67.52;101215.69;5060688;28;9800;-68
2022/06/07 07:56:53;;;;;;;;;16.75;16.25;;;;;14.37;67.42;101220.03;5061804;28;9601;-68
2022/06/07 07:59:20;;;;;;;;;16.75;16.50;;;;;14.27;67.85;101216.94;5048720;28;9692;-68
2022/06/07 08:01:51;;;;;;;;;14.25;11.00;;;;;14.32;67.73;101230.69;5048301;28;9961;-68
2022/06/07 08:04:18;;;;;;;;;15.50;13.75;;;;;14.33;67.93;101218.78;5047147;28;9581;-67
2022/06/07 08:06:48;;;;;;;;;18.00;17.25;;;;;14.37;67.83;101230.03;5048133;28;9511;-67
2022/06/07 08:09:15;;;;;;;;;15.25;13.25;;;;;14.40;67.65;101224.22;5051394;28;9759;-67
2022/06/07 08:11:43;;;;;;;;;11.00;10.50;;;;;14.45;67.94;101227.94;5053317;28;9664;-67
2022/06/07 08:14:14;;;;;;;;;13.75;12.00;;;;;14.52;67.74;101228.81;5053075;28;9693;-68
2022/06/07 08:16:40;;;;;;;;;15.75;13.50;;;;;14.53;67.67;101218.81;5045007;28;9597;-67
2022/06/07 08:19:08;;;;;;;;;13.50;13.25;;;;;14.58;67.28;101227.13;5052979;28;9763;-68
2022/06/07 08:21:36;;;;;;;;;16.25;15.50;;;;;14.56;67.68;101223.81;5053061;28;9842;-68
2022/06/07 08:24:04;;;;;;;;;21.00;18.25;;;;;14.53;66.99;101230.47;5051980;28;9756;-67
2022/06/07 08:26:32;;;;;;;;;12.25;12.25;;;;;14.52;67.23;101233.41;5035130;28;10218;-68
2022/06/07 08:28:59;;;;;;;;;18.75;16.50;;;;;14.51;67.13;101231.75;5052750;28;9595;-68
2022/06/07 08:31:29;;;;;;;;;15.25;14.25;;;;;14.46;67.12;101234.19;5052805;28;9701;-68
2022/06/07 08:39:27;;;;;;;;;14.50;12.00;;;;;14.40;66.59;101235.06;5052549;28;9599;-68
2022/06/07 08:41:57;;;;;;;;;17.50;14.25;;;;;14.46;67.01;101236.91;5052711;28;10315;-67
2022/06/07 08:44:41;;;;;;;;;17.75;17.75;;;;;14.51;67.21;101246.13;5052380;28;9800;-67
2022/06/07 08:47:33;;;;;;;;;20.00;17.75;;;;;14.52;66.86;101244.22;5051051;28;9824;-68
2022/06/07 08:50:16;;;;;;;;;15.00;13.00;;;;;14.56;66.76;101238.19;5052247;28;9750;-68
2022/06/07 08:52:45;;;;;;;;;15.75;15.25;;;;;14.62;67.15;101233.78;5052370;28;9682;-67
2022/06/07 08:55:21;;;;;;;;;15.25;15.25;;;;;14.71;67.17;101237.13;5052167;28;9671;-67
2022/06/07 08:58:05;;;;;;;;;16.75;14.50;;;;;14.78;66.78;101243.34;5052280;28;9584;-67
2022/06/07 09:00:35;;;;;;;;;14.00;14.00;;;;;14.93;66.50;101241.22;5049729;28;9687;-67
2022/06/07 09:03:19;;;;;;;;;17.00;13.00;;;;;15.03;66.04;101241.63;5052189;28;9606;-67
2022/06/07 09:05:54;;;;;;;;;16.75;12.75;;;;;15.08;65.23;101241.81;5052342;28;9590;-67
2022/06/07 09:08:20;;;;;;;;;16.00;13.50;;;;;15.17;64.82;101236.97;5051958;28;10456;-67
2022/06/07 09:13:37;;;;;;;;;14.25;11.75;;;;;15.37;64.41;101233.34;5052037;28;10430;-67
2022/06/07 09:16:04;;;;;;;;;12.75;12.75;;;;;15.40;64.20;101230.22;5051957;28;10270;-67
2022/06/07 09:18:33;;;;;;;;;12.00;12.00;;;;;15.39;64.18;101234.78;5051544;28;10319;-67
2022/06/07 09:21:08;;;;;;;;;11.25;10.75;;;;;15.40;64.16;101235.63;5050365;28;9508;-67
2022/06/07 09:23:39;;;;;;;;;13.00;11.50;;;;;15.46;64.14;101235.56;5052115;28;9450;-67
2022/06/07 09:26:33;;;;;;;;;13.25;13.00;;;;;15.46;63.88;101232.03;5041454;28;9669;-67
2022/06/07 09:29:14;;;;;;;;;12.75;11.00;;;;;15.47;63.69;101241.81;5051447;28;9438;-68
2022/06/07 09:31:43;;;;;;;;;14.25;14.00;;;;;15.47;63.52;101241.81;5050592;28;9474;-67
2022/06/07 09:34:19;;;;;;;;;14.50;12.75;;;;;15.37;63.65;101236.88;5051738;28;10409;-67
2022/06/07 09:36:54;;;;;;;;;11.25;11.25;;;;;15.41;63.99;101234.56;5052008;28;9595;-66
2022/06/07 09:39:29;;;;;;;;;13.25;11.50;;;;;15.49;63.54;101243.28;5052006;28;9446;-67
2022/06/07 09:42:10;;;;;;;;;20.75;15.00;;;;;15.55;62.60;101253.25;5052826;28;9375;-67
2022/06/07 09:44:54;;;;;;;;;16.33;12.33;;;;;15.57;61.82;101248.47;5045325;28;9478;-66
2022/06/07 09:47:23;;;;;;;;;12.33;12.33;;;;;15.64;61.55;101240.28;5051470;28;9381;-67
2022/06/07 09:49:56;;;;;;;;;12.33;12.33;;;;;15.74;61.66;101237.94;5051901;28;9445;-68
2022/06/07 09:52:41;;;;;;;;;13.75;11.75;;;;;15.81;61.00;101232.50;5051631;28;9397;-67
2022/06/07 09:55:21;;;;;;;;;12.50;12.50;;;;;15.88;60.00;101243.28;5052173;28;9397;-67
2022/06/07 09:57:58;;;;;;;;;11.67;10.00;;;;;15.94;60.20;101237.81;5050511;28;9524;-66
2022/06/07 10:00:57;;;;;;;;;11.00;9.00;;;;;16.04;59.76;101246.31;5052121;28;9293;-67
2022/06/07 10:03:39;;;;;;;;;14.33;11.00;;;;;16.15;59.94;101246.63;5043286;28;9307;-66
2022/06/07 10:06:28;;;;;;;;;15.67;12.00;;;;;16.35;59.28;101239.16;5052133;28;9304;-68
2022/06/07 10:09:12;;;;;;;;;19.00;15.50;;;;;16.36;58.99;101237.25;5044412;28;9513;-67
2022/06/07 10:11:48;;;;;;;;;12.00;12.00;;;;;16.36;59.01;101238.09;5051849;28;9606;-67
2022/06/07 10:14:23;;;;;;;;;12.33;12.33;;;;;16.45;59.19;101244.09;5047524;28;9386;-67
2022/06/07 10:17:21;;;;;;;;;13.33;11.00;;;;;16.49;58.84;101246.16;5050798;28;9367;-67
2022/06/07 10:20:03;;;;;;;;;15.50;13.00;;;;;16.46;58.84;101249.31;5052342;28;9382;-66
2022/06/07 10:23:02;;;;;;;;;12.33;10.33;;;;;16.51;57.38;101244.03;5052338;28;9281;-67
2022/06/07 10:25:53;;;;;;;;;8.33;7.00;;;;;16.56;56.42;101246.06;5046240;28;9316;-67
2022/06/07 10:28:49;;;;;;;;;6.00;6.00;;;;;16.69;55.02;101251.38;5051951;28;9890;-67
2022/06/07 10:31:47;;;;;;;;;7.67;6.67;;;;;16.91;55.27;101240.94;5044299;28;9099;-67
2022/06/07 10:34:38;;;;;;;;;6.33;5.33;;;;;17.04;52.64;101239.94;5051346;28;9037;-67
2022/06/07 10:37:38;;;;;;;;;7.00;7.00;;;;;17.12;52.23;101236.09;5051224;28;9120;-67
2022/06/07 10:40:22;;;;;;;;;7.00;5.00;;;;;17.12;53.16;101245.06;5042386;28;9144;-67
2022/06/07 10:42:59;;;;;;;;;9.33;9.33;;;;;17.14;53.72;101245.69;5051877;28;9007;-67
2022/06/07 10:45:28;;;;;;;;;11.00;10.00;;;;;17.13;53.66;101251.34;5041809;28;9052;-68
2022/06/07 10:47:54;;;;;;;;;8.33;8.33;;;;;17.12;52.96;101246.97;5049910;28;9087;-67
2022/06/07 10:50:45;;;;;;;;;7.67;6.67;;;;;17.04;53.00;101250.81;5051094;28;9893;-66
2022/06/07 10:53:40;;;;;;;;;8.67;8.67;;;;;17.02;53.42;101248.34;5050135;28;8993;-67
2022/06/07 10:56:19;;;;;;;;;11.33;11.33;;;;;16.98;54.31;101243.59;5051073;28;9208;-66
2022/06/07 10:58:49;;;;;;;;;11.67;9.33;;;;;17.04;54.74;101246.19;5051682;28;9127;-67
2022/06/07 11:01:23;;;;;;;;;11.00;9.00;;;;;17.17;55.28;101245.22;5051833;28;9157;-67
2022/06/07 11:09:19;;;;;;;;;12.00;9.33;;;;;17.20;55.25;101247.47;5052155;28;9046;-67
2022/06/07 11:10:04;;;;;;;;;8.00;8.00;;;;;17.48;53.43;101241.47;5051793;28;9114;-67
2022/06/07 11:12:39;;;;;;;;;14.67;13.33;;;;;17.48;53.88;101243.38;5051264;28;9183;-67
2022/06/07 11:15:17;;;;;;;;;7.00;6.33;;;;;17.49;53.40;101255.91;5050982;28;9363;-66
2022/06/07 11:17:53;;;;;;;;;9.00;9.00;;;;;17.57;53.55;101252.03;5050734;28;9051;-66
2022/06/07 11:20:27;;;;;;;;;10.67;8.33;;;;;17.58;54.00;101251.78;5050701;28;8983;-66
2022/06/07 11:23:17;;;;;;;;;12.33;12.00;;;;;17.65;54.10;101251.72;5050897;28;9075;-66
2022/06/07 11:26:08;;;;;;;;;11.00;8.33;;;;;17.76;54.72;101250.97;5049965;28;9053;-66
2022/06/07 11:28:42;;;;;;;;;8.00;8.00;;;;;17.76;54.11;101253.69;5050150;28;8980;-66
2022/06/07 11:31:15;;;;;;;;;12.00;12.00;;;;;17.68;53.77;101254.81;5046419;28;9031;-67
2022/06/07 11:33:47;;;;;;;;;13.00;12.00;;;;;17.58;54.01;101253.69;5050760;28;9035;-66
2022/06/07 11:36:20;;;;;;;;;10.00;10.00;;;;;17.61;54.69;101250.50;5045865;28;9171;-67
2022/06/07 11:38:58;;;;;;;;;10.00;8.33;;;;;17.64;54.60;101250.88;5050238;28;9012;-67
2022/06/07 11:41:38;;;;;;;;;15.00;12.67;;;;;17.71;54.15;101254.34;5050919;28;9037;-67
2022/06/07 11:44:27;;;;;;;;;15.00;14.00;;;;;17.64;54.01;101252.78;5045185;28;9075;-67
2022/06/07 11:46:57;;;;;;;;;10.67;9.67;;;;;17.66;53.90;101247.91;5052685;28;9071;-67
2022/06/07 11:49:24;;;;;;;;;13.00;12.33;;;;;17.70;54.19;101252.69;5050192;28;8949;-68
2022/06/07 11:51:55;;;;;;;;;9.00;9.00;;;;;17.79;53.94;101251.34;5053959;28;9016;-66
2022/06/07 11:54:28;;;;;;;;;13.33;13.33;;;;;17.94;54.17;101252.78;5048180;28;9078;-67
2022/06/07 11:57:00;;;;;;;;;14.67;14.67;;;;;17.94;53.88;101256.31;5048492;28;9021;-67
2022/06/07 11:59:34;;;;;;;;;12.33;12.00;;;;;17.93;53.32;101253.84;5054136;28;9078;-67
2022/06/07 12:02:00;;;;;;;;;11.00;11.00;;;;;17.94;53.44;101247.31;5044862;28;8985;-66
2022/06/07 12:04:34;;;;;;;;;13.00;12.00;;;;;18.06;53.67;101250.91;5053956;28;8944;-66
2022/06/07 12:07:41;;;;;;;;;11.33;11.33;;;;;18.06;52.74;101250.91;5050338;28;8904;-66